Oriental Clematis — 9VJT5 — position and weather

sailwx.info

Track history (hours):
 
Tides and Currents Weather Stations Pressure Air Temp Water Temp Dewpoint Dewpoint Depression Visibility Wind Speed Wind Dir Waves Ship Positions

Oriental Clematis

Last reported at 2015-May-27 11:27 UTC. Time now 2015-May-30 08:26 UTC.
Position N 08°52' E 123°56'.

Length 134 m; draft 8.7 m.

Type: Ship. MMSI: 565157000.

Date/timePositionNaut miles runAvg speedWind from/ knotsBaromVisibWave heightAir tempDewpointWater temp
2015-May-27 11:27N 08°52' E 123°56'1212.7
2015-May-27 10:33N 08°50' E 123°45'1212.3
2015-May-27 09:33N 08°49' E 123°33'1211.9
2015-May-27 08:33N 08°49' E 123°21'1212.0
2015-May-27 07:31N 08°49' E 123°08'  
2015-May-21 02:05N 08°54' E 123°11'612.3
2015-May-21 01:34N 08°55' E 123°17'1211.9
2015-May-21 00:34N 08°58' E 123°29'1212.0
2015-May-20 23:34N 09°01' E 123°41'1312.5
2015-May-20 22:34N 09°06' E 123°52'1312.5
2015-May-20 21:32N 09°12' E 124°04'6812.8
2015-May-20 16:11N 09°44' E 125°05'711.9
2015-May-20 15:33N 09°48' E 125°12'1212.1
2015-May-20 14:34N 09°55' E 125°21'1513.6
2015-May-20 13:28N 10°10' E 125°22'  
Track history (hours):
 
Tides and Currents Weather Stations Pressure Air Temp Water Temp Dewpoint Dewpoint Depression Visibility Wind Speed Wind Dir Waves Ship Positions

Oriental Clematis

Last reported at 2015-May-27 11:27 UTC. Time now 2015-May-30 08:26 UTC.
Position N 08°52' E 123°56'.

Length 134 m; draft 8.7 m.

Type: Ship. MMSI: 565157000.

Date/timePositionNaut miles runAvg speedWind from/ knotsBaromVisibWave heightAir tempDewpointWater temp
2015-May-27 11:27N 08°52' E 123°56'1212.7
2015-May-27 10:33N 08°50' E 123°45'1212.3
2015-May-27 09:33N 08°49' E 123°33'1211.9
2015-May-27 08:33N 08°49' E 123°21'1212.0
2015-May-27 07:31N 08°49' E 123°08'  
2015-May-21 02:05N 08°54' E 123°11'612.3
2015-May-21 01:34N 08°55' E 123°17'1211.9
2015-May-21 00:34N 08°58' E 123°29'1212.0
2015-May-20 23:34N 09°01' E 123°41'1312.5
2015-May-20 22:34N 09°06' E 123°52'1312.5
2015-May-20 21:32N 09°12' E 124°04'6812.8
2015-May-20 16:11N 09°44' E 125°05'711.9
2015-May-20 15:33N 09°48' E 125°12'1212.1
2015-May-20 14:34N 09°55' E 125°21'1513.6
2015-May-20 13:28N 10°10' E 125°22'  

Dump ship's entire track history